This is the latest recevied weather packets stored in our database for station/object EA2CW-13. If no packets are shown the sender has not sent any weather packets the latest 10 day(s).
| Time | Temp. | Humidity | Pressure | Rain* | Wind** | Luminosity | Snow |
|---|---|---|---|---|---|---|---|
| 1777583442 | 18.89° C | 76% | 1056.7 hPa | - | - | 0 W/m² | - |
| 1777582506 | 18.33° C | 76% | 1056.5 hPa | - | - | 0 W/m² | - |
| 1777581570 | 18.89° C | 75% | 1056.6 hPa | - | - | 0 W/m² | - |
| 1777580634 | 18.89° C | 75% | 1056.4 hPa | - | - | 0 W/m² | - |
| 1777579698 | 18.89° C | 75% | 1056.3 hPa | - | - | 0 W/m² | - |
| 1777578762 | 19.44° C | 75% | 1056 hPa | - | - | 0 W/m² | - |
| 1777577826 | 19.44° C | 74% | 1055.7 hPa | - | - | 0 W/m² | - |
| 1777576890 | 18.89° C | 73% | 1055.7 hPa | - | - | 0 W/m² | - |
| 1777575954 | 19.44° C | 71% | 1055.5 hPa | - | - | 1 W/m² | - |
| 1777575018 | 20° C | 66% | 1055.2 hPa | - | - | 3 W/m² | - |
| 1777574082 | 20.56° C | 63% | 1055.2 hPa | - | - | 7 W/m² | - |
| 1777573146 | 23.89° C | 54% | 1054.9 hPa | - | - | 25 W/m² | - |
| 1777572210 | 23.33° C | 57% | 1054.7 hPa | - | - | 35 W/m² | - |
| 1777571274 | 22.22° C | 56% | 1054.6 hPa | - | - | 19 W/m² | - |
| 1777570338 | 22.78° C | 54% | 1054.7 hPa | - | - | 25 W/m² | - |
| 1777569402 | 27.22° C | 44% | 1054.3 hPa | - | - | 54 W/m² | - |
| 1777568466 | 27.22° C | 44% | 1054.1 hPa | - | - | 59 W/m² | - |
| 1777567530 | 24.44° C | 47% | 1054 hPa | - | - | 35 W/m² | - |
| 1777566594 | 27.78° C | 40% | 1053.9 hPa | - | - | 89 W/m² | - |
| 1777565658 | 26.67° C | 37% | 1053.7 hPa | - | - | 48 W/m² | - |
| 1777564722 | 28.33° C | 37% | 1053.5 hPa | - | - | 69 W/m² | - |
| 1777563786 | 28.33° C | 39% | 1053.4 hPa | - | - | 65 W/m² | - |
| 1777562850 | 26.67° C | 42% | 1053.5 hPa | - | - | 63 W/m² | - |
| 1777561914 | 26.11° C | 45% | 1053.5 hPa | - | - | 67 W/m² | - |
| 1777560978 | 26.11° C | 47% | 1053.5 hPa | - | - | 65 W/m² | - |
* Rain since midnight (hover to see other rain measurements)
** Current wind speed in m/s (hover to see current wind gust speed)